sensor_id;sensor_type;location;lat;lon;timestamp;temperature;humidity
17762;DHT22;9005;48.838;10.112;2023-11-25T00:02:03;-0.30;93.50
17762;DHT22;9005;48.838;10.112;2023-11-25T00:04:30;-0.30;93.70
17762;DHT22;9005;48.838;10.112;2023-11-25T00:06:57;-0.40;93.80
17762;DHT22;9005;48.838;10.112;2023-11-25T00:09:23;-0.30;93.90
17762;DHT22;9005;48.838;10.112;2023-11-25T00:11:50;-0.30;93.90
17762;DHT22;9005;48.838;10.112;2023-11-25T00:14:17;-0.30;93.90
17762;DHT22;9005;48.838;10.112;2023-11-25T00:16:45;-0.30;93.70
17762;DHT22;9005;48.838;10.112;2023-11-25T00:19:12;-0.20;93.80
17762;DHT22;9005;48.838;10.112;2023-11-25T00:21:39;-0.30;93.60
17762;DHT22;9005;48.838;10.112;2023-11-25T00:24:06;-0.30;93.40
17762;DHT22;9005;48.838;10.112;2023-11-25T00:26:33;-0.30;93.30
17762;DHT22;9005;48.838;10.112;2023-11-25T00:29:00;-0.20;93.40
17762;DHT22;9005;48.838;10.112;2023-11-25T00:31:26;-0.30;93.50
17762;DHT22;9005;48.838;10.112;2023-11-25T00:33:55;-0.30;93.50
17762;DHT22;9005;48.838;10.112;2023-11-25T00:36:21;-0.30;93.60
17762;DHT22;9005;48.838;10.112;2023-11-25T00:38:48;-0.30;93.70
17762;DHT22;9005;48.838;10.112;2023-11-25T00:41:15;-0.30;93.70
17762;DHT22;9005;48.838;10.112;2023-11-25T00:43:42;-0.30;93.60
17762;DHT22;9005;48.838;10.112;2023-11-25T00:46:09;-0.30;93.30
17762;DHT22;9005;48.838;10.112;2023-11-25T00:48:35;-0.30;92.90
17762;DHT22;9005;48.838;10.112;2023-11-25T00:51:04;-0.30;92.80
17762;DHT22;9005;48.838;10.112;2023-11-25T00:53:31;-0.30;92.90
17762;DHT22;9005;48.838;10.112;2023-11-25T00:55:58;-0.30;93.00
17762;DHT22;9005;48.838;10.112;2023-11-25T00:58:25;-0.30;92.90
17762;DHT22;9005;48.838;10.112;2023-11-25T01:00:52;-0.20;93.00
17762;DHT22;9005;48.838;10.112;2023-11-25T01:03:19;-0.20;92.90
17762;DHT22;9005;48.838;10.112;2023-11-25T01:05:45;-0.30;93.10
17762;DHT22;9005;48.838;10.112;2023-11-25T01:08:14;-0.20;93.00
17762;DHT22;9005;48.838;10.112;2023-11-25T01:10:40;-0.20;92.80
17762;DHT22;9005;48.838;10.112;2023-11-25T01:13:07;-0.20;92.00
17762;DHT22;9005;48.838;10.112;2023-11-25T01:15:34;-0.20;91.00
17762;DHT22;9005;48.838;10.112;2023-11-25T01:18:01;-0.20;90.50
17762;DHT22;9005;48.838;10.112;2023-11-25T01:20:27;-0.20;89.50
17762;DHT22;9005;48.838;10.112;2023-11-25T01:22:54;-0.20;90.20
17762;DHT22;9005;48.838;10.112;2023-11-25T01:25:22;-0.20;90.40
17762;DHT22;9005;48.838;10.112;2023-11-25T01:27:49;-0.20;90.60
17762;DHT22;9005;48.838;10.112;2023-11-25T01:30:19;-0.30;90.30
17762;DHT22;9005;48.838;10.112;2023-11-25T01:32:46;-0.30;89.30
17762;DHT22;9005;48.838;10.112;2023-11-25T01:35:13;-0.30;89.50
17762;DHT22;9005;48.838;10.112;2023-11-25T01:37:40;-0.30;89.90
17762;DHT22;9005;48.838;10.112;2023-11-25T01:40:07;-0.30;89.50
17762;DHT22;9005;48.838;10.112;2023-11-25T01:42:38;-0.30;89.40
17762;DHT22;9005;48.838;10.112;2023-11-25T01:45:05;-0.30;89.60
17762;DHT22;9005;48.838;10.112;2023-11-25T01:47:34;-0.30;89.50
17762;DHT22;9005;48.838;10.112;2023-11-25T01:50:02;-0.30;89.90
17762;DHT22;9005;48.838;10.112;2023-11-25T01:52:32;-0.30;89.70
17762;DHT22;9005;48.838;10.112;2023-11-25T01:55:00;-0.30;89.40
17762;DHT22;9005;48.838;10.112;2023-11-25T01:57:29;-0.30;89.00
17762;DHT22;9005;48.838;10.112;2023-11-25T01:59:58;-0.30;89.10
17762;DHT22;9005;48.838;10.112;2023-11-25T02:02:25;-0.30;89.00
17762;DHT22;9005;48.838;10.112;2023-11-25T02:04:54;-0.30;88.10
17762;DHT22;9005;48.838;10.112;2023-11-25T02:07:21;-0.40;87.80
17762;DHT22;9005;48.838;10.112;2023-11-25T02:09:48;-0.40;88.00
17762;DHT22;9005;48.838;10.112;2023-11-25T02:12:15;-0.40;87.20
17762;DHT22;9005;48.838;10.112;2023-11-25T02:14:41;-0.40;87.50
17762;DHT22;9005;48.838;10.112;2023-11-25T02:17:10;-0.40;86.40
17762;DHT22;9005;48.838;10.112;2023-11-25T02:19:36;-0.40;85.50
17762;DHT22;9005;48.838;10.112;2023-11-25T02:22:03;-0.40;86.00
17762;DHT22;9005;48.838;10.112;2023-11-25T02:24:35;-0.40;86.60
17762;DHT22;9005;48.838;10.112;2023-11-25T02:27:04;-0.40;85.90
17762;DHT22;9005;48.838;10.112;2023-11-25T02:29:31;-0.40;87.00
17762;DHT22;9005;48.838;10.112;2023-11-25T02:31:58;-0.40;87.20
17762;DHT22;9005;48.838;10.112;2023-11-25T02:34:25;-0.40;86.60
17762;DHT22;9005;48.838;10.112;2023-11-25T02:36:52;-0.40;87.10
17762;DHT22;9005;48.838;10.112;2023-11-25T02:39:19;-0.40;86.80
17762;DHT22;9005;48.838;10.112;2023-11-25T02:41:49;-0.40;86.20
17762;DHT22;9005;48.838;10.112;2023-11-25T02:44:16;-0.40;86.40
17762;DHT22;9005;48.838;10.112;2023-11-25T02:46:43;-0.40;86.60
17762;DHT22;9005;48.838;10.112;2023-11-25T02:49:11;-0.50;86.90
17762;DHT22;9005;48.838;10.112;2023-11-25T02:51:37;-0.50;85.90
17762;DHT22;9005;48.838;10.112;2023-11-25T02:54:04;-0.50;86.00
17762;DHT22;9005;48.838;10.112;2023-11-25T02:56:32;-0.50;86.70
17762;DHT22;9005;48.838;10.112;2023-11-25T02:59:01;-0.50;86.80
17762;DHT22;9005;48.838;10.112;2023-11-25T03:01:28;-0.50;86.20
17762;DHT22;9005;48.838;10.112;2023-11-25T03:03:56;-0.50;87.10
17762;DHT22;9005;48.838;10.112;2023-11-25T03:06:26;-0.50;85.40
17762;DHT22;9005;48.838;10.112;2023-11-25T03:08:56;-0.50;85.90
17762;DHT22;9005;48.838;10.112;2023-11-25T03:11:23;-0.50;85.00
17762;DHT22;9005;48.838;10.112;2023-11-25T03:13:51;-0.50;86.10
17762;DHT22;9005;48.838;10.112;2023-11-25T03:16:20;-0.50;85.40
17762;DHT22;9005;48.838;10.112;2023-11-25T03:18:50;-0.50;85.70
17762;DHT22;9005;48.838;10.112;2023-11-25T03:21:18;-0.50;84.10
17762;DHT22;9005;48.838;10.112;2023-11-25T03:23:45;-0.50;84.70
17762;DHT22;9005;48.838;10.112;2023-11-25T03:26:12;-0.60;84.70
17762;DHT22;9005;48.838;10.112;2023-11-25T03:28:39;-0.60;84.30
17762;DHT22;9005;48.838;10.112;2023-11-25T03:31:06;-0.60;84.30
17762;DHT22;9005;48.838;10.112;2023-11-25T03:33:35;-0.60;83.00
17762;DHT22;9005;48.838;10.112;2023-11-25T03:36:03;-0.60;83.30
17762;DHT22;9005;48.838;10.112;2023-11-25T03:38:29;-0.70;83.40
17762;DHT22;9005;48.838;10.112;2023-11-25T03:40:56;-0.70;82.20
17762;DHT22;9005;48.838;10.112;2023-11-25T03:43:23;-0.70;82.70
17762;DHT22;9005;48.838;10.112;2023-11-25T03:45:50;-0.70;83.00
17762;DHT22;9005;48.838;10.112;2023-11-25T03:48:17;-0.70;83.40
17762;DHT22;9005;48.838;10.112;2023-11-25T03:50:46;-0.70;83.00
17762;DHT22;9005;48.838;10.112;2023-11-25T03:53:13;-0.80;83.00
17762;DHT22;9005;48.838;10.112;2023-11-25T03:55:40;-0.80;83.60
17762;DHT22;9005;48.838;10.112;2023-11-25T03:58:06;-0.90;83.60
17762;DHT22;9005;48.838;10.112;2023-11-25T04:00:33;-0.90;83.30
17762;DHT22;9005;48.838;10.112;2023-11-25T04:03:00;-0.90;83.40
17762;DHT22;9005;48.838;10.112;2023-11-25T04:05:27;-0.90;83.40
17762;DHT22;9005;48.838;10.112;2023-11-25T04:07:55;-0.90;82.20
17762;DHT22;9005;48.838;10.112;2023-11-25T04:10:22;-0.80;81.90
17762;DHT22;9005;48.838;10.112;2023-11-25T04:12:49;-0.80;81.70
17762;DHT22;9005;48.838;10.112;2023-11-25T04:15:18;-0.80;81.30
17762;DHT22;9005;48.838;10.112;2023-11-25T04:17:46;-0.80;82.40
17762;DHT22;9005;48.838;10.112;2023-11-25T04:20:13;-0.80;81.90
17762;DHT22;9005;48.838;10.112;2023-11-25T04:22:41;-0.80;81.60
17762;DHT22;9005;48.838;10.112;2023-11-25T04:25:09;-0.80;80.60
17762;DHT22;9005;48.838;10.112;2023-11-25T04:27:38;-0.80;81.10
17762;DHT22;9005;48.838;10.112;2023-11-25T04:30:06;-0.80;80.80
17762;DHT22;9005;48.838;10.112;2023-11-25T04:32:34;-0.90;81.90
17762;DHT22;9005;48.838;10.112;2023-11-25T04:35:00;-0.90;82.00
17762;DHT22;9005;48.838;10.112;2023-11-25T04:37:28;-0.90;81.00
17762;DHT22;9005;48.838;10.112;2023-11-25T04:39:55;-0.90;82.60
17762;DHT22;9005;48.838;10.112;2023-11-25T04:42:23;-0.90;80.80
17762;DHT22;9005;48.838;10.112;2023-11-25T04:44:50;-0.80;81.20
17762;DHT22;9005;48.838;10.112;2023-11-25T04:47:16;-0.90;81.30
17762;DHT22;9005;48.838;10.112;2023-11-25T04:49:43;-0.90;82.30
17762;DHT22;9005;48.838;10.112;2023-11-25T04:52:10;-0.80;81.90
17762;DHT22;9005;48.838;10.112;2023-11-25T04:54:37;-0.80;81.80
17762;DHT22;9005;48.838;10.112;2023-11-25T04:57:04;-0.80;81.80
17762;DHT22;9005;48.838;10.112;2023-11-25T04:59:33;-0.80;81.20
17762;DHT22;9005;48.838;10.112;2023-11-25T05:02:00;-0.80;80.90
17762;DHT22;9005;48.838;10.112;2023-11-25T05:04:29;-0.90;81.60
17762;DHT22;9005;48.838;10.112;2023-11-25T05:06:56;-0.90;81.30
17762;DHT22;9005;48.838;10.112;2023-11-25T05:09:23;-0.90;81.80
17762;DHT22;9005;48.838;10.112;2023-11-25T05:11:51;-0.90;82.10
17762;DHT22;9005;48.838;10.112;2023-11-25T05:14:18;-0.90;81.20
17762;DHT22;9005;48.838;10.112;2023-11-25T05:16:46;-0.90;82.00
17762;DHT22;9005;48.838;10.112;2023-11-25T05:19:13;-0.90;81.60
17762;DHT22;9005;48.838;10.112;2023-11-25T05:21:40;-1.00;82.10
17762;DHT22;9005;48.838;10.112;2023-11-25T05:24:07;-1.00;81.70
17762;DHT22;9005;48.838;10.112;2023-11-25T05:26:34;-1.00;81.90
17762;DHT22;9005;48.838;10.112;2023-11-25T05:29:01;-1.00;81.90
17762;DHT22;9005;48.838;10.112;2023-11-25T05:31:28;-0.90;81.60
17762;DHT22;9005;48.838;10.112;2023-11-25T05:33:56;-1.00;82.50
17762;DHT22;9005;48.838;10.112;2023-11-25T05:36:22;-0.90;82.40
17762;DHT22;9005;48.838;10.112;2023-11-25T05:38:49;-1.00;83.10
17762;DHT22;9005;48.838;10.112;2023-11-25T05:41:16;-1.00;83.30
17762;DHT22;9005;48.838;10.112;2023-11-25T05:43:44;-1.00;83.90
17762;DHT22;9005;48.838;10.112;2023-11-25T05:46:20;-1.00;83.80
17762;DHT22;9005;48.838;10.112;2023-11-25T05:48:47;-1.10;84.30
17762;DHT22;9005;48.838;10.112;2023-11-25T05:51:15;-1.10;84.10
17762;DHT22;9005;48.838;10.112;2023-11-25T05:53:43;-1.10;83.50
17762;DHT22;9005;48.838;10.112;2023-11-25T05:56:10;-1.10;84.40
17762;DHT22;9005;48.838;10.112;2023-11-25T05:58:37;-1.10;84.20
17762;DHT22;9005;48.838;10.112;2023-11-25T06:01:04;-1.10;83.80
17762;DHT22;9005;48.838;10.112;2023-11-25T06:03:31;-1.10;84.20
17762;DHT22;9005;48.838;10.112;2023-11-25T06:05:57;-1.20;84.50
17762;DHT22;9005;48.838;10.112;2023-11-25T06:08:25;-1.20;84.70
17762;DHT22;9005;48.838;10.112;2023-11-25T06:10:52;-1.20;84.90
17762;DHT22;9005;48.838;10.112;2023-11-25T06:13:19;-1.20;85.40
17762;DHT22;9005;48.838;10.112;2023-11-25T06:15:46;-1.30;85.70
17762;DHT22;9005;48.838;10.112;2023-11-25T06:18:13;-1.30;85.80
17762;DHT22;9005;48.838;10.112;2023-11-25T06:20:42;-1.20;85.50
17762;DHT22;9005;48.838;10.112;2023-11-25T06:23:10;-1.20;85.90
17762;DHT22;9005;48.838;10.112;2023-11-25T06:25:38;-1.20;85.10
17762;DHT22;9005;48.838;10.112;2023-11-25T06:28:06;-1.20;85.60
17762;DHT22;9005;48.838;10.112;2023-11-25T06:30:32;-1.30;85.50
17762;DHT22;9005;48.838;10.112;2023-11-25T06:32:59;-1.30;85.50
17762;DHT22;9005;48.838;10.112;2023-11-25T06:35:26;-1.40;86.00
17762;DHT22;9005;48.838;10.112;2023-11-25T06:37:52;-1.40;85.90
17762;DHT22;9005;48.838;10.112;2023-11-25T06:40:19;-1.40;86.40
17762;DHT22;9005;48.838;10.112;2023-11-25T06:42:47;-1.40;86.10
17762;DHT22;9005;48.838;10.112;2023-11-25T06:45:14;-1.40;85.90
17762;DHT22;9005;48.838;10.112;2023-11-25T06:47:41;-1.40;85.90
17762;DHT22;9005;48.838;10.112;2023-11-25T06:50:09;-1.40;85.90
17762;DHT22;9005;48.838;10.112;2023-11-25T06:52:36;-1.50;86.10
17762;DHT22;9005;48.838;10.112;2023-11-25T06:55:03;-1.50;86.50
17762;DHT22;9005;48.838;10.112;2023-11-25T06:57:30;-1.50;86.80
17762;DHT22;9005;48.838;10.112;2023-11-25T06:59:59;-1.50;87.10
17762;DHT22;9005;48.838;10.112;2023-11-25T07:02:26;-1.50;87.60
17762;DHT22;9005;48.838;10.112;2023-11-25T07:04:53;-1.50;87.50
17762;DHT22;9005;48.838;10.112;2023-11-25T07:07:20;-1.50;87.50
17762;DHT22;9005;48.838;10.112;2023-11-25T07:09:47;-1.50;87.70
17762;DHT22;9005;48.838;10.112;2023-11-25T07:12:14;-1.50;87.90
17762;DHT22;9005;48.838;10.112;2023-11-25T07:14:41;-1.50;88.30
17762;DHT22;9005;48.838;10.112;2023-11-25T07:17:09;-1.50;88.20
17762;DHT22;9005;48.838;10.112;2023-11-25T07:19:38;-1.50;88.10
17762;DHT22;9005;48.838;10.112;2023-11-25T07:22:06;-1.50;88.40
17762;DHT22;9005;48.838;10.112;2023-11-25T07:24:34;-1.50;88.50
17762;DHT22;9005;48.838;10.112;2023-11-25T07:27:00;-1.50;88.10
17762;DHT22;9005;48.838;10.112;2023-11-25T07:29:30;-1.50;88.50
17762;DHT22;9005;48.838;10.112;2023-11-25T07:31:57;-1.50;88.40
17762;DHT22;9005;48.838;10.112;2023-11-25T07:34:26;-1.50;88.50
17762;DHT22;9005;48.838;10.112;2023-11-25T07:36:54;-1.60;88.80
17762;DHT22;9005;48.838;10.112;2023-11-25T07:39:20;-1.60;89.10
17762;DHT22;9005;48.838;10.112;2023-11-25T07:41:49;-1.60;89.10
17762;DHT22;9005;48.838;10.112;2023-11-25T07:44:19;-1.60;89.30
17762;DHT22;9005;48.838;10.112;2023-11-25T07:46:47;-1.50;89.50
17762;DHT22;9005;48.838;10.112;2023-11-25T07:49:15;-1.50;89.50
17762;DHT22;9005;48.838;10.112;2023-11-25T07:51:44;-1.50;88.90
17762;DHT22;9005;48.838;10.112;2023-11-25T07:54:11;-1.40;88.40
17762;DHT22;9005;48.838;10.112;2023-11-25T07:56:38;-1.40;88.30
17762;DHT22;9005;48.838;10.112;2023-11-25T07:59:04;-1.30;88.40
17762;DHT22;9005;48.838;10.112;2023-11-25T08:01:31;-1.30;88.40
17762;DHT22;9005;48.838;10.112;2023-11-25T08:03:58;-1.30;88.20
17762;DHT22;9005;48.838;10.112;2023-11-25T08:06:25;-1.30;88.40
17762;DHT22;9005;48.838;10.112;2023-11-25T08:08:53;-1.40;88.30
17762;DHT22;9005;48.838;10.112;2023-11-25T08:11:23;-1.30;88.50
17762;DHT22;9005;48.838;10.112;2023-11-25T08:13:50;-1.30;88.40
17762;DHT22;9005;48.838;10.112;2023-11-25T08:16:17;-1.30;88.20
17762;DHT22;9005;48.838;10.112;2023-11-25T08:18:44;-1.20;88.20
17762;DHT22;9005;48.838;10.112;2023-11-25T08:21:11;-1.10;88.40
17762;DHT22;9005;48.838;10.112;2023-11-25T08:23:39;-1.10;88.20
17762;DHT22;9005;48.838;10.112;2023-11-25T08:26:16;-1.00;87.80
17762;DHT22;9005;48.838;10.112;2023-11-25T08:28:44;-0.90;87.60
17762;DHT22;9005;48.838;10.112;2023-11-25T08:31:11;-0.90;87.20
17762;DHT22;9005;48.838;10.112;2023-11-25T08:33:39;-0.80;86.70
17762;DHT22;9005;48.838;10.112;2023-11-25T08:36:06;-0.80;87.10
17762;DHT22;9005;48.838;10.112;2023-11-25T08:38:33;-0.80;87.30
17762;DHT22;9005;48.838;10.112;2023-11-25T08:41:01;-0.80;87.30
17762;DHT22;9005;48.838;10.112;2023-11-25T08:43:31;-0.80;87.50
17762;DHT22;9005;48.838;10.112;2023-11-25T08:45:58;-0.70;86.90
17762;DHT22;9005;48.838;10.112;2023-11-25T08:48:25;-0.60;86.90
17762;DHT22;9005;48.838;10.112;2023-11-25T08:50:52;-0.60;87.00
17762;DHT22;9005;48.838;10.112;2023-11-25T08:53:19;-0.60;87.40
17762;DHT22;9005;48.838;10.112;2023-11-25T08:55:48;-0.50;86.90
17762;DHT22;9005;48.838;10.112;2023-11-25T08:58:15;-0.50;86.50
17762;DHT22;9005;48.838;10.112;2023-11-25T09:00:43;-0.50;86.70
17762;DHT22;9005;48.838;10.112;2023-11-25T09:03:10;-0.40;86.50
17762;DHT22;9005;48.838;10.112;2023-11-25T09:05:40;-0.40;86.70
17762;DHT22;9005;48.838;10.112;2023-11-25T09:08:06;-0.30;86.70
17762;DHT22;9005;48.838;10.112;2023-11-25T09:10:35;-0.30;86.60
17762;DHT22;9005;48.838;10.112;2023-11-25T09:13:02;-0.30;86.40
17762;DHT22;9005;48.838;10.112;2023-11-25T09:15:29;-0.20;86.40
17762;DHT22;9005;48.838;10.112;2023-11-25T09:17:58;-0.20;86.40
17762;DHT22;9005;48.838;10.112;2023-11-25T09:20:26;-0.20;85.90
17762;DHT22;9005;48.838;10.112;2023-11-25T09:22:54;-0.20;86.10
17762;DHT22;9005;48.838;10.112;2023-11-25T09:25:21;-0.10;85.60
17762;DHT22;9005;48.838;10.112;2023-11-25T09:27:48;-0.10;85.60
17762;DHT22;9005;48.838;10.112;2023-11-25T09:30:15;-0.10;85.50
17762;DHT22;9005;48.838;10.112;2023-11-25T09:32:44;-0.10;85.20
17762;DHT22;9005;48.838;10.112;2023-11-25T09:35:13;0.00;84.70
17762;DHT22;9005;48.838;10.112;2023-11-25T09:37:41;0.00;84.80
17762;DHT22;9005;48.838;10.112;2023-11-25T09:40:10;0.00;85.20
17762;DHT22;9005;48.838;10.112;2023-11-25T09:42:40;0.00;85.20
17762;DHT22;9005;48.838;10.112;2023-11-25T09:45:09;0.00;85.40
17762;DHT22;9005;48.838;10.112;2023-11-25T09:47:36;0.00;84.80
17762;DHT22;9005;48.838;10.112;2023-11-25T09:50:04;0.00;85.40
17762;DHT22;9005;48.838;10.112;2023-11-25T09:52:37;0.00;85.50
17762;DHT22;9005;48.838;10.112;2023-11-25T09:55:07;0.00;85.50
17762;DHT22;9005;48.838;10.112;2023-11-25T09:57:35;0.10;84.90
17762;DHT22;9005;48.838;10.112;2023-11-25T10:00:04;0.10;85.10
17762;DHT22;9005;48.838;10.112;2023-11-25T10:02:32;0.10;84.90
17762;DHT22;9005;48.838;10.112;2023-11-25T10:05:01;0.10;85.00
17762;DHT22;9005;48.838;10.112;2023-11-25T10:07:31;0.20;84.10
17762;DHT22;9005;48.838;10.112;2023-11-25T10:09:58;0.20;83.60
17762;DHT22;9005;48.838;10.112;2023-11-25T10:12:26;0.20;82.90
17762;DHT22;9005;48.838;10.112;2023-11-25T10:14:53;0.30;82.70
17762;DHT22;9005;48.838;10.112;2023-11-25T10:17:25;0.30;83.10
17762;DHT22;9005;48.838;10.112;2023-11-25T10:20:04;0.40;83.90
17762;DHT22;9005;48.838;10.112;2023-11-25T10:22:43;0.50;83.00
17762;DHT22;9005;48.838;10.112;2023-11-25T10:25:10;0.60;82.50
17762;DHT22;9005;48.838;10.112;2023-11-25T10:27:37;0.50;81.90
17762;DHT22;9005;48.838;10.112;2023-11-25T10:30:05;0.40;82.30
17762;DHT22;9005;48.838;10.112;2023-11-25T10:32:33;0.40;81.60
17762;DHT22;9005;48.838;10.112;2023-11-25T10:35:00;0.40;81.90
17762;DHT22;9005;48.838;10.112;2023-11-25T10:37:28;0.50;82.20
17762;DHT22;9005;48.838;10.112;2023-11-25T10:39:58;0.60;81.20
17762;DHT22;9005;48.838;10.112;2023-11-25T10:42:25;0.90;81.60
17762;DHT22;9005;48.838;10.112;2023-11-25T10:44:52;1.00;79.90
17762;DHT22;9005;48.838;10.112;2023-11-25T10:47:28;0.90;80.40
17762;DHT22;9005;48.838;10.112;2023-11-25T10:49:56;0.80;80.40
17762;DHT22;9005;48.838;10.112;2023-11-25T10:52:23;0.80;81.70
17762;DHT22;9005;48.838;10.112;2023-11-25T10:54:50;0.80;79.50
17762;DHT22;9005;48.838;10.112;2023-11-25T10:57:21;0.90;79.30
17762;DHT22;9005;48.838;10.112;2023-11-25T10:59:56;1.00;79.20
17762;DHT22;9005;48.838;10.112;2023-11-25T11:02:25;1.30;79.60
17762;DHT22;9005;48.838;10.112;2023-11-25T11:04:58;1.60;78.20
17762;DHT22;9005;48.838;10.112;2023-11-25T11:07:26;1.70;77.40
17762;DHT22;9005;48.838;10.112;2023-11-25T11:09:56;1.80;77.70
17762;DHT22;9005;48.838;10.112;2023-11-25T11:12:30;2.10;75.00
17762;DHT22;9005;48.838;10.112;2023-11-25T11:15:02;2.10;74.10
17762;DHT22;9005;48.838;10.112;2023-11-25T11:17:37;1.90;73.30
17762;DHT22;9005;48.838;10.112;2023-11-25T11:20:08;1.80;75.20
17762;DHT22;9005;48.838;10.112;2023-11-25T11:22:39;2.10;74.90
17762;DHT22;9005;48.838;10.112;2023-11-25T11:25:13;2.10;73.80
17762;DHT22;9005;48.838;10.112;2023-11-25T11:27:46;1.90;73.70
17762;DHT22;9005;48.838;10.112;2023-11-25T11:30:24;1.80;74.80
17762;DHT22;9005;48.838;10.112;2023-11-25T11:32:53;1.70;75.00
17762;DHT22;9005;48.838;10.112;2023-11-25T11:35:32;1.70;74.60
17762;DHT22;9005;48.838;10.112;2023-11-25T11:38:01;1.60;74.50
17762;DHT22;9005;48.838;10.112;2023-11-25T11:40:27;1.50;76.20
17762;DHT22;9005;48.838;10.112;2023-11-25T11:42:56;1.50;76.60
17762;DHT22;9005;48.838;10.112;2023-11-25T11:45:24;1.40;76.70
17762;DHT22;9005;48.838;10.112;2023-11-25T11:47:52;1.40;78.00
17762;DHT22;9005;48.838;10.112;2023-11-25T11:50:21;1.50;77.20
17762;DHT22;9005;48.838;10.112;2023-11-25T11:53:11;1.50;76.60
17762;DHT22;9005;48.838;10.112;2023-11-25T11:55:41;1.40;75.90
17762;DHT22;9005;48.838;10.112;2023-11-25T11:58:10;1.50;76.50
17762;DHT22;9005;48.838;10.112;2023-11-25T12:00:41;1.60;77.60
17762;DHT22;9005;48.838;10.112;2023-11-25T12:03:11;1.50;75.60
17762;DHT22;9005;48.838;10.112;2023-11-25T12:05:38;1.50;76.30
17762;DHT22;9005;48.838;10.112;2023-11-25T12:08:05;1.50;76.20
17762;DHT22;9005;48.838;10.112;2023-11-25T12:10:32;1.50;77.10
17762;DHT22;9005;48.838;10.112;2023-11-25T12:12:59;1.50;76.70
17762;DHT22;9005;48.838;10.112;2023-11-25T12:15:27;1.50;77.40
17762;DHT22;9005;48.838;10.112;2023-11-25T12:17:56;1.50;77.50
17762;DHT22;9005;48.838;10.112;2023-11-25T12:20:24;1.50;77.60
17762;DHT22;9005;48.838;10.112;2023-11-25T12:22:53;1.50;78.00
17762;DHT22;9005;48.838;10.112;2023-11-25T12:25:21;1.50;78.50
17762;DHT22;9005;48.838;10.112;2023-11-25T12:27:52;1.40;78.60
17762;DHT22;9005;48.838;10.112;2023-11-25T12:30:20;1.40;79.80
17762;DHT22;9005;48.838;10.112;2023-11-25T12:32:48;1.30;80.20
17762;DHT22;9005;48.838;10.112;2023-11-25T12:35:15;1.30;81.10
17762;DHT22;9005;48.838;10.112;2023-11-25T12:37:42;1.10;81.90
17762;DHT22;9005;48.838;10.112;2023-11-25T12:40:17;0.90;83.70
17762;DHT22;9005;48.838;10.112;2023-11-25T12:42:45;0.70;85.20
17762;DHT22;9005;48.838;10.112;2023-11-25T12:45:27;0.60;86.60
17762;DHT22;9005;48.838;10.112;2023-11-25T12:47:55;0.40;87.80
17762;DHT22;9005;48.838;10.112;2023-11-25T12:50:23;0.30;88.80
17762;DHT22;9005;48.838;10.112;2023-11-25T12:53:10;0.20;89.50
17762;DHT22;9005;48.838;10.112;2023-11-25T12:55:41;0.20;89.70
17762;DHT22;9005;48.838;10.112;2023-11-25T12:58:10;0.10;89.90
17762;DHT22;9005;48.838;10.112;2023-11-25T13:00:44;0.10;90.30
17762;DHT22;9005;48.838;10.112;2023-11-25T13:03:20;0.00;90.40
17762;DHT22;9005;48.838;10.112;2023-11-25T13:05:47;0.10;90.50
17762;DHT22;9005;48.838;10.112;2023-11-25T13:08:22;0.10;90.40
17762;DHT22;9005;48.838;10.112;2023-11-25T13:10:49;0.10;90.50
17762;DHT22;9005;48.838;10.112;2023-11-25T13:13:16;0.20;90.60
17762;DHT22;9005;48.838;10.112;2023-11-25T13:15:42;0.20;90.50
17762;DHT22;9005;48.838;10.112;2023-11-25T13:18:09;0.20;90.00
17762;DHT22;9005;48.838;10.112;2023-11-25T13:20:39;0.20;90.30
17762;DHT22;9005;48.838;10.112;2023-11-25T13:23:06;0.10;90.80
17762;DHT22;9005;48.838;10.112;2023-11-25T13:25:33;0.10;90.80
17762;DHT22;9005;48.838;10.112;2023-11-25T13:27:59;0.00;91.00
17762;DHT22;9005;48.838;10.112;2023-11-25T13:30:26;0.00;91.20
17762;DHT22;9005;48.838;10.112;2023-11-25T13:32:53;-0.10;91.50
17762;DHT22;9005;48.838;10.112;2023-11-25T13:35:20;0.00;91.50
17762;DHT22;9005;48.838;10.112;2023-11-25T13:37:48;-0.10;91.50
17762;DHT22;9005;48.838;10.112;2023-11-25T13:40:15;-0.10;91.70
17762;DHT22;9005;48.838;10.112;2023-11-25T13:42:45;-0.10;91.90
17762;DHT22;9005;48.838;10.112;2023-11-25T13:45:12;-0.10;91.80
17762;DHT22;9005;48.838;10.112;2023-11-25T13:47:39;-0.10;91.90
17762;DHT22;9005;48.838;10.112;2023-11-25T13:50:07;-0.10;92.10
17762;DHT22;9005;48.838;10.112;2023-11-25T13:52:36;-0.10;92.10
17762;DHT22;9005;48.838;10.112;2023-11-25T13:55:05;-0.10;92.20
17762;DHT22;9005;48.838;10.112;2023-11-25T13:57:32;-0.10;92.30
17762;DHT22;9005;48.838;10.112;2023-11-25T13:59:59;-0.10;92.40
17762;DHT22;9005;48.838;10.112;2023-11-25T14:02:26;-0.10;92.50
17762;DHT22;9005;48.838;10.112;2023-11-25T14:04:55;-0.10;92.60
17762;DHT22;9005;48.838;10.112;2023-11-25T14:07:22;-0.10;92.70
17762;DHT22;9005;48.838;10.112;2023-11-25T14:09:50;-0.10;92.50
17762;DHT22;9005;48.838;10.112;2023-11-25T14:12:18;0.00;92.40
17762;DHT22;9005;48.838;10.112;2023-11-25T14:14:44;0.00;92.40
17762;DHT22;9005;48.838;10.112;2023-11-25T14:17:11;0.00;92.40
17762;DHT22;9005;48.838;10.112;2023-11-25T14:19:42;0.00;92.40
17762;DHT22;9005;48.838;10.112;2023-11-25T14:22:10;0.00;92.50
17762;DHT22;9005;48.838;10.112;2023-11-25T14:24:37;0.00;92.50
17762;DHT22;9005;48.838;10.112;2023-11-25T14:27:04;0.00;92.40
17762;DHT22;9005;48.838;10.112;2023-11-25T14:29:32;0.00;92.50
17762;DHT22;9005;48.838;10.112;2023-11-25T14:31:59;0.00;92.70
17762;DHT22;9005;48.838;10.112;2023-11-25T14:34:25;0.00;92.70
17762;DHT22;9005;48.838;10.112;2023-11-25T14:36:52;0.00;92.70
17762;DHT22;9005;48.838;10.112;2023-11-25T14:39:19;0.00;92.70
17762;DHT22;9005;48.838;10.112;2023-11-25T14:41:58;0.00;92.90
17762;DHT22;9005;48.838;10.112;2023-11-25T14:44:25;0.00;93.00
17762;DHT22;9005;48.838;10.112;2023-11-25T14:46:53;0.10;93.10
17762;DHT22;9005;48.838;10.112;2023-11-25T14:49:21;0.10;93.00
17762;DHT22;9005;48.838;10.112;2023-11-25T14:51:47;0.10;92.80
17762;DHT22;9005;48.838;10.112;2023-11-25T14:54:14;0.10;92.90
17762;DHT22;9005;48.838;10.112;2023-11-25T14:56:41;0.00;92.90
17762;DHT22;9005;48.838;10.112;2023-11-25T14:59:09;0.10;93.00
17762;DHT22;9005;48.838;10.112;2023-11-25T15:01:36;0.10;93.10
17762;DHT22;9005;48.838;10.112;2023-11-25T15:04:04;0.10;93.30
17762;DHT22;9005;48.838;10.112;2023-11-25T15:06:31;0.10;93.30
17762;DHT22;9005;48.838;10.112;2023-11-25T15:08:58;0.20;93.10
17762;DHT22;9005;48.838;10.112;2023-11-25T15:11:25;0.30;93.10
17762;DHT22;9005;48.838;10.112;2023-11-25T15:13:52;0.30;92.70
17762;DHT22;9005;48.838;10.112;2023-11-25T15:16:18;0.30;92.10
17762;DHT22;9005;48.838;10.112;2023-11-25T15:18:45;0.40;92.10
17762;DHT22;9005;48.838;10.112;2023-11-25T15:21:17;0.40;91.90
17762;DHT22;9005;48.838;10.112;2023-11-25T15:23:44;0.40;91.80
17762;DHT22;9005;48.838;10.112;2023-11-25T15:26:11;0.50;91.70
17762;DHT22;9005;48.838;10.112;2023-11-25T15:28:39;0.50;91.80
17762;DHT22;9005;48.838;10.112;2023-11-25T15:31:09;0.50;91.80
17762;DHT22;9005;48.838;10.112;2023-11-25T15:33:36;0.50;91.90
17762;DHT22;9005;48.838;10.112;2023-11-25T15:36:04;0.50;91.70
17762;DHT22;9005;48.838;10.112;2023-11-25T15:38:32;0.50;91.80
17762;DHT22;9005;48.838;10.112;2023-11-25T15:40:59;0.50;91.60